Seastreak Highlands — WDE4031 — position and weather

sailwx.info

Track history (hours):
 
Tides and Currents Weather Stations Pressure Air Temp Water Temp Dewpoint Dewpoint Depression Visibility Wind Speed Wind Dir Waves Ship Positions

Seastreak Highlands

Owner: Seastreak llc, atlantic highlands, NJ. More information available from US FCC via Universal Licensing System and Coast Guard Vessel Documentation Center.

Last reported at 2017-Apr-25 16:30 UTC. Time now 2017-Apr-25 16:33 UTC.
Position N 40°45' W 073°58'.

Length 44 m.

Type: High speed craft. MMSI: 367347670.

Date/timePositionNaut miles runAvg speedWind from/ knotsBaromVisibWave heightAir tempDewpointWater temp
2017-Apr-25 16:30N 40°45' W 073°58'0 0.0
2017-Apr-25 16:00N 40°45' W 073°58'0 0.0
2017-Apr-25 15:30N 40°45' W 073°58'0 0.0
2017-Apr-25 15:00N 40°45' W 073°58'0 0.0
2017-Apr-25 14:00N 40°45' W 073°58'611.4
2017-Apr-25 13:31N 40°40' W 074°02'5 5.1
2017-Apr-25 12:29N 40°34' W 074°03'1122.2
2017-Apr-25 12:00N 40°45' W 073°58'816.8
2017-Apr-25 11:30N 40°37' W 074°03'13 1.2
2017-Apr-25 00:44N 40°25' W 073°60'2 6.6
2017-Apr-25 00:29N 40°25' W 074°02'1122.8
2017-Apr-25 00:01N 40°36' W 074°03'918.0
2017-Apr-24 23:30N 40°45' W 073°58'611.6
2017-Apr-24 23:01N 40°40' W 074°02'1528.8
2017-Apr-24 22:29N 40°25' W 073°60'914.9
2017-Apr-24 21:55N 40°33' W 074°03'923.3
2017-Apr-24 21:30N 40°42' W 074°00'3 5.8
2017-Apr-24 21:00N 40°45' W 073°58'510.4
2017-Apr-24 20:31N 40°40' W 074°02'1522.8
2017-Apr-24 19:51N 40°25' W 074°02'714.1
2017-Apr-24 19:22N 40°32' W 074°02'1028.3
2017-Apr-24 19:01N 40°42' W 074°00'3 5.9
2017-Apr-24 18:30N 40°45' W 073°58'0 0.0
2017-Apr-24 18:00N 40°45' W 073°58'0 0.0
2017-Apr-24 17:30N 40°45' W 073°58'0 0.0
2017-Apr-24 17:00N 40°45' W 073°58'0 0.0
2017-Apr-24 16:30N 40°45' W 073°58'0 0.0
2017-Apr-24 16:00N 40°45' W 073°58'0 0.0
2017-Apr-24 15:30N 40°45' W 073°58'0 0.0
2017-Apr-24 15:00N 40°45' W 073°58'0 0.0
2017-Apr-24 14:30N 40°45' W 073°58'4 4.5
2017-Apr-24 13:30N 40°41' W 074°02'1529.8
2017-Apr-24 13:00N 40°26' W 074°02'713.3
2017-Apr-24 12:30N 40°32' W 074°02'1325.3
2017-Apr-24 12:00N 40°45' W 073°58'714.7
2017-Apr-24 11:31N 40°38' W 074°03'1318.5
2017-Apr-24 10:48N 40°25' W 074°02'0 0.0
2017-Apr-24 09:55N 40°25' W 074°02'0 0.0
2017-Apr-24 09:30N 40°25' W 074°02'0 0.0
2017-Apr-23 18:51N 40°25' W 074°02'0 0.0
2017-Apr-23 18:30N 40°25' W 074°02'0 0.0
2017-Apr-23 17:55N 40°25' W 074°02'0 0.0
2017-Apr-23 17:30N 40°25' W 074°02'0 0.0
2017-Apr-23 16:59N 40°25' W 074°02'0 0.0
2017-Apr-23 16:30N 40°25' W 074°02'0 0.0
2017-Apr-23 16:00N 40°25' W 074°02'0 0.0
2017-Apr-23 14:50N 40°25' W 074°02'0 0.0
2017-Apr-23 14:30N 40°25' W 074°02'0 0.0
2017-Apr-22 00:25N 40°25' W 074°02'2 2.2
2017-Apr-21 23:41N 40°25' W 074°00'1 4.2
2017-Apr-21 23:30N 40°25' W 074°01'1021.1
2017-Apr-21 23:01N 40°36' W 074°03'918.9
2017-Apr-21 22:30N 40°45' W 073°58'1122.3
2017-Apr-21 22:00N 40°34' W 074°02'917.3
2017-Apr-21 21:28N 40°25' W 073°60'1124.8
2017-Apr-21 21:00N 40°36' W 074°03'815.6
2017-Apr-21 20:31N 40°43' W 073°58'2 3.6
2017-Apr-21 20:00N 40°45' W 073°58'0 0.0
2017-Apr-21 19:30N 40°45' W 073°58'0 0.0
2017-Apr-21 19:00N 40°45' W 073°58'0 0.0
2017-Apr-21 18:30N 40°45' W 073°58'0 0.0
2017-Apr-21 18:00N 40°45' W 073°58'0 0.0
2017-Apr-21 17:30N 40°45' W 073°58'0 0.0
2017-Apr-21 17:00N 40°45' W 073°58'0 0.0
2017-Apr-21 16:30N 40°45' W 073°58'0 0.0
2017-Apr-21 16:00N 40°45' W 073°58'0 0.0
2017-Apr-21 15:30N 40°45' W 073°58'0 0.0
2017-Apr-21 15:00N 40°45' W 073°58'0 0.0
2017-Apr-21 14:30N 40°45' W 073°58'5 5.2
2017-Apr-21 13:31N 40°40' W 074°02'1526.4
2017-Apr-21 12:56N 40°25' W 074°02'919.7
2017-Apr-21 12:30N 40°34' W 074°03'1123.0
2017-Apr-21 12:01N 40°45' W 073°58'714.8
2017-Apr-21 11:31N 40°38' W 074°03'14 1.3
2017-Apr-21 00:42N 40°25' W 073°60'2 8.7
2017-Apr-21 00:30N 40°25' W 074°02'2 4.9
2017-Apr-21 00:00N 40°28' W 074°01'714.5
2017-Apr-20 23:30N 40°35' W 074°03'815.3
2017-Apr-20 23:01N 40°42' W 074°00'3 6.0
2017-Apr-20 22:30N 40°45' W 073°58'816.7
2017-Apr-20 22:00N 40°37' W 074°03'1223.4
2017-Apr-20 21:30N 40°25' W 074°01'917.5
2017-Apr-20 21:00N 40°34' W 074°02'918.9
2017-Apr-20 20:31N 40°43' W 073°58'2 3.4
2017-Apr-20 20:00N 40°45' W 073°58'0 0.0
2017-Apr-20 19:30N 40°45' W 073°58'0 0.0
2017-Apr-20 19:00N 40°45' W 073°58'0 0.0
2017-Apr-20 18:30N 40°45' W 073°58'0 0.0
2017-Apr-20 18:00N 40°45' W 073°58'0 0.0
2017-Apr-20 17:30N 40°45' W 073°58'0 0.1
2017-Apr-20 17:00N 40°45' W 073°58'0 0.0
2017-Apr-20 16:30N 40°45' W 073°58'0 0.0
2017-Apr-20 16:00N 40°45' W 073°58'0 0.0
2017-Apr-20 14:00N 40°45' W 073°58'510.1
2017-Apr-20 13:31N 40°41' W 074°02'1527.7
2017-Apr-20 12:57N 40°25' W 074°02'818.3
2017-Apr-20 12:30N 40°33' W 074°02'1223.4
2017-Apr-20 12:01N 40°45' W 073°58'815.3
2017-Apr-20 11:31N 40°38' W 074°03'1320.8
2017-Apr-20 10:54N 40°25' W 074°02'2 1.8
2017-Apr-20 09:51N 40°25' W 073°60'0 0.0
2017-Apr-19 23:53N 40°25' W 073°60'0 0.1
2017-Apr-19 23:26N 40°25' W 073°60'1127.1
2017-Apr-19 23:01N 40°36' W 074°03'918.7
2017-Apr-19 22:30N 40°45' W 073°58'1019.7
2017-Apr-19 22:00N 40°35' W 074°03'3 3.6
2017-Apr-19 21:07N 40°32' W 074°02'329.6
2017-Apr-19 21:00N 40°35' W 074°02'917.9
2017-Apr-19 20:30N 40°44' W 073°58'1 2.0
2017-Apr-19 20:00N 40°45' W 073°58'0 0.0
2017-Apr-19 19:30N 40°45' W 073°58'0 0.0
2017-Apr-19 19:00N 40°45' W 073°58'0 0.0
2017-Apr-19 18:30N 40°45' W 073°58'0 0.0
2017-Apr-19 18:00N 40°45' W 073°58'0 0.0
2017-Apr-19 17:30N 40°45' W 073°58'0 0.0
2017-Apr-19 17:00N 40°45' W 073°58'0 0.1
2017-Apr-19 16:30N 40°45' W 073°58'0 0.1
2017-Apr-19 16:00N 40°45' W 073°58'0 0.0
2017-Apr-19 15:30N 40°45' W 073°58'0 0.0
2017-Apr-19 15:00N 40°45' W 073°58'0 0.0
2017-Apr-19 14:30N 40°45' W 073°58'4 4.5
2017-Apr-19 13:31N 40°41' W 074°02'1626.9
2017-Apr-19 12:55N 40°25' W 074°02'818.5
2017-Apr-19 12:29N 40°33' W 074°02'1224.8
2017-Apr-19 12:00N 40°45' W 073°58'713.4
2017-Apr-19 11:31N 40°39' W 074°02'14 1.3
2017-Apr-19 00:24N 40°25' W 073°60'2 3.7
2017-Apr-18 23:59N 40°25' W 074°02'5 8.2
2017-Apr-18 23:24N 40°30' W 074°02'1024.6
2017-Apr-18 23:01N 40°40' W 074°01'510.7
2017-Apr-18 22:30N 40°45' W 073°58'1122.5
2017-Apr-18 22:00N 40°34' W 074°02'918.6
2017-Apr-18 21:30N 40°25' W 073°60'1121.5
2017-Apr-18 21:01N 40°35' W 074°03'917.7
2017-Apr-18 20:31N 40°43' W 073°58'1 2.9
2017-Apr-18 20:00N 40°45' W 073°58'0 0.0
2017-Apr-18 19:30N 40°45' W 073°58'0 0.0
2017-Apr-18 19:00N 40°45' W 073°58'0 0.0
2017-Apr-18 18:30N 40°45' W 073°58'0 0.0
2017-Apr-18 18:00N 40°45' W 073°58'0 0.0
2017-Apr-18 17:30N 40°45' W 073°58'0 0.0
2017-Apr-18 17:00N 40°45' W 073°58'0 0.0
2017-Apr-18 16:30N 40°45' W 073°58'0 0.0
2017-Apr-18 16:00N 40°45' W 073°58'0 0.0
2017-Apr-18 15:30N 40°45' W 073°58'0 0.0
2017-Apr-18 15:00N 40°45' W 073°58'0 0.0
2017-Apr-18 14:30N 40°45' W 073°58'1010.1
2017-Apr-18 13:31N 40°35' W 074°03'814.2
2017-Apr-18 12:57N 40°27' W 074°02'1431.0
2017-Apr-18 12:31N 40°41' W 074°01'2 3.0
2017-Apr-18 12:00N 40°42' W 074°00'611.7
2017-Apr-18 11:31N 40°37' W 074°03'1222.3
2017-Apr-18 11:00N 40°25' W 074°02'2 1.8
2017-Apr-18 09:58N 40°25' W 073°60'0 0.0
2017-Apr-18 00:32N 40°25' W 073°60'115.9
2017-Apr-18 00:27N 40°25' W 074°01'1022.0
2017-Apr-18 00:00N 40°35' W 074°03'1020.0
2017-Apr-17 23:31N 40°45' W 073°58'917.0
2017-Apr-17 23:01N 40°37' W 074°03'1218.5
2017-Apr-17 22:21N 40°25' W 074°00'513.0
2017-Apr-17 21:57N 40°30' W 074°02'1227.7
2017-Apr-17 21:30N 40°42' W 074°00'3 5.9
2017-Apr-17 21:00N 40°45' W 073°58'815.3
2017-Apr-17 20:31N 40°38' W 074°03'1319.7
2017-Apr-17 19:52N 40°25' W 074°02'4 9.9
2017-Apr-17 19:29N 40°29' W 074°01'1327.8
2017-Apr-17 19:00N 40°42' W 074°00'3 5.9
2017-Apr-17 18:30N 40°45' W 073°58'0 0.1
2017-Apr-17 18:00N 40°45' W 073°58'0 0.0
2017-Apr-17 17:30N 40°45' W 073°58'0 0.0
2017-Apr-17 17:00N 40°45' W 073°58'0 0.0
2017-Apr-17 16:30N 40°45' W 073°58'0 0.0
2017-Apr-17 16:00N 40°45' W 073°58'0 0.0
2017-Apr-17 15:30N 40°45' W 073°58'0 0.0
2017-Apr-17 15:00N 40°45' W 073°58'0 0.0
2017-Apr-17 14:30N 40°45' W 073°58'5 5.0
2017-Apr-17 13:31N 40°40' W 074°02'1529.2
2017-Apr-17 12:59N 40°25' W 074°02'1021.3
2017-Apr-17 12:30N 40°36' W 074°03'1019.3
2017-Apr-17 12:01N 40°45' W 073°58'816.4
2017-Apr-17 11:30N 40°37' W 074°03'1223.6
2017-Apr-17 11:00N 40°25' W 074°02'2 0.2
2017-Apr-17 01:30N 40°25' W 073°60'1326.7
2017-Apr-17 01:01N 40°37' W 074°03'815.6
2017-Apr-17 00:30N 40°45' W 073°58'1019.1
2017-Apr-17 00:00N 40°36' W 074°02'1115.6
2017-Apr-16 23:17N 40°25' W 073°60'0 0.0
2017-Apr-16 23:00N 40°25' W 073°60'3 6.8
2017-Apr-16 22:30N 40°28' W 074°01'1327.0
2017-Apr-16 22:01N 40°41' W 074°01'2 4.4
2017-Apr-16 21:31N 40°42' W 073°59'612.8
2017-Apr-16 21:00N 40°36' W 074°02'1215.0
2017-Apr-16 20:13N 40°25' W 074°00'625.7
2017-Apr-16 20:00N 40°30' W 074°02'1224.2
2017-Apr-16 19:30N 40°42' W 074°00'3 6.0
2017-Apr-16 19:01N 40°45' W 073°58'0 0.0
2017-Apr-16 18:30N 40°45' W 073°58'0 0.0
2017-Apr-16 18:01N 40°45' W 073°58'0 0.0
2017-Apr-16 17:31N 40°45' W 073°58'1 2.1
2017-Apr-16 17:00N 40°44' W 073°58'815.6
2017-Apr-16 16:30N 40°37' W 074°02'6 6.2
2017-Apr-16 15:32N 40°31' W 074°02'432.2
2017-Apr-16 15:25N 40°34' W 074°02'922.1
2017-Apr-16 15:01N 40°43' W 073°58'8 7.7
2017-Apr-16 14:00N 40°36' W 074°02'1117.2
2017-Apr-16 13:20N 40°25' W 073°60'0 0.0
2017-Apr-16 01:33N 40°25' W 073°60'0 0.0
2017-Apr-16 01:30N 40°25' W 073°60'1224.2
2017-Apr-16 01:00N 40°36' W 074°03'917.7
2017-Apr-16 00:31N 40°45' W 073°58'816.1
2017-Apr-16 00:01N 40°37' W 074°03'1324.0
2017-Apr-15 23:28N 40°25' W 073°60'0 0.0
2017-Apr-15 23:01N 40°25' W 073°60'812.4
2017-Apr-15 22:22N 40°32' W 074°02'925.4
2017-Apr-15 22:01N 40°41' W 074°01'2 3.2
2017-Apr-15 21:31N 40°42' W 073°59'612.6
2017-Apr-15 21:01N 40°37' W 074°03'1224.3
2017-Apr-15 20:30N 40°25' W 073°60'816.6
2017-Apr-15 20:00N 40°33' W 074°02'1019.5
2017-Apr-15 19:30N 40°42' W 074°00'3 5.8
2017-Apr-15 19:00N 40°45' W 073°58'0 0.0
2017-Apr-15 18:30N 40°45' W 073°58'0 0.0
2017-Apr-15 18:00N 40°45' W 073°58'0 0.0
2017-Apr-15 17:30N 40°45' W 073°58'2 3.7
2017-Apr-15 17:01N 40°43' W 073°58'  
Track history (hours):
 
Tides and Currents Weather Stations Pressure Air Temp Water Temp Dewpoint Dewpoint Depression Visibility Wind Speed Wind Dir Waves Ship Positions

Seastreak Highlands

Owner: Seastreak llc, atlantic highlands, NJ. More information available from US FCC via Universal Licensing System and Coast Guard Vessel Documentation Center.

Last reported at 2017-Apr-25 16:30 UTC. Time now 2017-Apr-25 16:33 UTC.
Position N 40°45' W 073°58'.

Length 44 m.

Type: High speed craft. MMSI: 367347670.

Date/timePositionNaut miles runAvg speedWind from/ knotsBaromVisibWave heightAir tempDewpointWater temp
2017-Apr-25 16:30N 40°45' W 073°58'0 0.0
2017-Apr-25 16:00N 40°45' W 073°58'0 0.0
2017-Apr-25 15:30N 40°45' W 073°58'0 0.0
2017-Apr-25 15:00N 40°45' W 073°58'0 0.0
2017-Apr-25 14:00N 40°45' W 073°58'611.4
2017-Apr-25 13:31N 40°40' W 074°02'5 5.1
2017-Apr-25 12:29N 40°34' W 074°03'1122.2
2017-Apr-25 12:00N 40°45' W 073°58'816.8
2017-Apr-25 11:30N 40°37' W 074°03'13 1.2
2017-Apr-25 00:44N 40°25' W 073°60'2 6.6
2017-Apr-25 00:29N 40°25' W 074°02'1122.8
2017-Apr-25 00:01N 40°36' W 074°03'918.0
2017-Apr-24 23:30N 40°45' W 073°58'611.6
2017-Apr-24 23:01N 40°40' W 074°02'1528.8
2017-Apr-24 22:29N 40°25' W 073°60'914.9
2017-Apr-24 21:55N 40°33' W 074°03'923.3
2017-Apr-24 21:30N 40°42' W 074°00'3 5.8
2017-Apr-24 21:00N 40°45' W 073°58'510.4
2017-Apr-24 20:31N 40°40' W 074°02'1522.8
2017-Apr-24 19:51N 40°25' W 074°02'714.1
2017-Apr-24 19:22N 40°32' W 074°02'1028.3
2017-Apr-24 19:01N 40°42' W 074°00'3 5.9
2017-Apr-24 18:30N 40°45' W 073°58'0 0.0
2017-Apr-24 18:00N 40°45' W 073°58'0 0.0
2017-Apr-24 17:30N 40°45' W 073°58'0 0.0
2017-Apr-24 17:00N 40°45' W 073°58'0 0.0
2017-Apr-24 16:30N 40°45' W 073°58'0 0.0
2017-Apr-24 16:00N 40°45' W 073°58'0 0.0
2017-Apr-24 15:30N 40°45' W 073°58'0 0.0
2017-Apr-24 15:00N 40°45' W 073°58'0 0.0
2017-Apr-24 14:30N 40°45' W 073°58'4 4.5
2017-Apr-24 13:30N 40°41' W 074°02'1529.8
2017-Apr-24 13:00N 40°26' W 074°02'713.3
2017-Apr-24 12:30N 40°32' W 074°02'1325.3
2017-Apr-24 12:00N 40°45' W 073°58'714.7
2017-Apr-24 11:31N 40°38' W 074°03'1318.5
2017-Apr-24 10:48N 40°25' W 074°02'0 0.0
2017-Apr-24 09:55N 40°25' W 074°02'0 0.0
2017-Apr-24 09:30N 40°25' W 074°02'0 0.0
2017-Apr-23 18:51N 40°25' W 074°02'0 0.0
2017-Apr-23 18:30N 40°25' W 074°02'0 0.0
2017-Apr-23 17:55N 40°25' W 074°02'0 0.0
2017-Apr-23 17:30N 40°25' W 074°02'0 0.0
2017-Apr-23 16:59N 40°25' W 074°02'0 0.0
2017-Apr-23 16:30N 40°25' W 074°02'0 0.0
2017-Apr-23 16:00N 40°25' W 074°02'0 0.0
2017-Apr-23 14:50N 40°25' W 074°02'0 0.0
2017-Apr-23 14:30N 40°25' W 074°02'0 0.0
2017-Apr-22 00:25N 40°25' W 074°02'2 2.2
2017-Apr-21 23:41N 40°25' W 074°00'1 4.2
2017-Apr-21 23:30N 40°25' W 074°01'1021.1
2017-Apr-21 23:01N 40°36' W 074°03'918.9
2017-Apr-21 22:30N 40°45' W 073°58'1122.3
2017-Apr-21 22:00N 40°34' W 074°02'917.3
2017-Apr-21 21:28N 40°25' W 073°60'1124.8
2017-Apr-21 21:00N 40°36' W 074°03'815.6
2017-Apr-21 20:31N 40°43' W 073°58'2 3.6
2017-Apr-21 20:00N 40°45' W 073°58'0 0.0
2017-Apr-21 19:30N 40°45' W 073°58'0 0.0
2017-Apr-21 19:00N 40°45' W 073°58'0 0.0
2017-Apr-21 18:30N 40°45' W 073°58'0 0.0
2017-Apr-21 18:00N 40°45' W 073°58'0 0.0
2017-Apr-21 17:30N 40°45' W 073°58'0 0.0
2017-Apr-21 17:00N 40°45' W 073°58'0 0.0
2017-Apr-21 16:30N 40°45' W 073°58'0 0.0
2017-Apr-21 16:00N 40°45' W 073°58'0 0.0
2017-Apr-21 15:30N 40°45' W 073°58'0 0.0
2017-Apr-21 15:00N 40°45' W 073°58'0 0.0
2017-Apr-21 14:30N 40°45' W 073°58'5 5.2
2017-Apr-21 13:31N 40°40' W 074°02'1526.4
2017-Apr-21 12:56N 40°25' W 074°02'919.7
2017-Apr-21 12:30N 40°34' W 074°03'1123.0
2017-Apr-21 12:01N 40°45' W 073°58'714.8
2017-Apr-21 11:31N 40°38' W 074°03'14 1.3
2017-Apr-21 00:42N 40°25' W 073°60'2 8.7
2017-Apr-21 00:30N 40°25' W 074°02'2 4.9
2017-Apr-21 00:00N 40°28' W 074°01'714.5
2017-Apr-20 23:30N 40°35' W 074°03'815.3
2017-Apr-20 23:01N 40°42' W 074°00'3 6.0
2017-Apr-20 22:30N 40°45' W 073°58'816.7
2017-Apr-20 22:00N 40°37' W 074°03'1223.4
2017-Apr-20 21:30N 40°25' W 074°01'917.5
2017-Apr-20 21:00N 40°34' W 074°02'918.9
2017-Apr-20 20:31N 40°43' W 073°58'2 3.4
2017-Apr-20 20:00N 40°45' W 073°58'0 0.0
2017-Apr-20 19:30N 40°45' W 073°58'0 0.0
2017-Apr-20 19:00N 40°45' W 073°58'0 0.0
2017-Apr-20 18:30N 40°45' W 073°58'0 0.0
2017-Apr-20 18:00N 40°45' W 073°58'0 0.0
2017-Apr-20 17:30N 40°45' W 073°58'0 0.1
2017-Apr-20 17:00N 40°45' W 073°58'0 0.0
2017-Apr-20 16:30N 40°45' W 073°58'0 0.0
2017-Apr-20 16:00N 40°45' W 073°58'0 0.0
2017-Apr-20 14:00N 40°45' W 073°58'510.1
2017-Apr-20 13:31N 40°41' W 074°02'1527.7
2017-Apr-20 12:57N 40°25' W 074°02'818.3
2017-Apr-20 12:30N 40°33' W 074°02'1223.4
2017-Apr-20 12:01N 40°45' W 073°58'815.3
2017-Apr-20 11:31N 40°38' W 074°03'1320.8
2017-Apr-20 10:54N 40°25' W 074°02'2 1.8
2017-Apr-20 09:51N 40°25' W 073°60'0 0.0
2017-Apr-19 23:53N 40°25' W 073°60'0 0.1
2017-Apr-19 23:26N 40°25' W 073°60'1127.1
2017-Apr-19 23:01N 40°36' W 074°03'918.7
2017-Apr-19 22:30N 40°45' W 073°58'1019.7
2017-Apr-19 22:00N 40°35' W 074°03'3 3.6
2017-Apr-19 21:07N 40°32' W 074°02'329.6
2017-Apr-19 21:00N 40°35' W 074°02'917.9
2017-Apr-19 20:30N 40°44' W 073°58'1 2.0
2017-Apr-19 20:00N 40°45' W 073°58'0 0.0
2017-Apr-19 19:30N 40°45' W 073°58'0 0.0
2017-Apr-19 19:00N 40°45' W 073°58'0 0.0
2017-Apr-19 18:30N 40°45' W 073°58'0 0.0
2017-Apr-19 18:00N 40°45' W 073°58'0 0.0
2017-Apr-19 17:30N 40°45' W 073°58'0 0.0
2017-Apr-19 17:00N 40°45' W 073°58'0 0.1
2017-Apr-19 16:30N 40°45' W 073°58'0 0.1
2017-Apr-19 16:00N 40°45' W 073°58'0 0.0
2017-Apr-19 15:30N 40°45' W 073°58'0 0.0
2017-Apr-19 15:00N 40°45' W 073°58'0 0.0
2017-Apr-19 14:30N 40°45' W 073°58'4 4.5
2017-Apr-19 13:31N 40°41' W 074°02'1626.9
2017-Apr-19 12:55N 40°25' W 074°02'818.5
2017-Apr-19 12:29N 40°33' W 074°02'1224.8
2017-Apr-19 12:00N 40°45' W 073°58'713.4
2017-Apr-19 11:31N 40°39' W 074°02'14 1.3
2017-Apr-19 00:24N 40°25' W 073°60'2 3.7
2017-Apr-18 23:59N 40°25' W 074°02'5 8.2
2017-Apr-18 23:24N 40°30' W 074°02'1024.6
2017-Apr-18 23:01N 40°40' W 074°01'510.7
2017-Apr-18 22:30N 40°45' W 073°58'1122.5
2017-Apr-18 22:00N 40°34' W 074°02'918.6
2017-Apr-18 21:30N 40°25' W 073°60'1121.5
2017-Apr-18 21:01N 40°35' W 074°03'917.7
2017-Apr-18 20:31N 40°43' W 073°58'1 2.9
2017-Apr-18 20:00N 40°45' W 073°58'0 0.0
2017-Apr-18 19:30N 40°45' W 073°58'0 0.0
2017-Apr-18 19:00N 40°45' W 073°58'0 0.0
2017-Apr-18 18:30N 40°45' W 073°58'0 0.0
2017-Apr-18 18:00N 40°45' W 073°58'0 0.0
2017-Apr-18 17:30N 40°45' W 073°58'0 0.0
2017-Apr-18 17:00N 40°45' W 073°58'0 0.0
2017-Apr-18 16:30N 40°45' W 073°58'0 0.0
2017-Apr-18 16:00N 40°45' W 073°58'0 0.0
2017-Apr-18 15:30N 40°45' W 073°58'0 0.0
2017-Apr-18 15:00N 40°45' W 073°58'0 0.0
2017-Apr-18 14:30N 40°45' W 073°58'1010.1
2017-Apr-18 13:31N 40°35' W 074°03'814.2
2017-Apr-18 12:57N 40°27' W 074°02'1431.0
2017-Apr-18 12:31N 40°41' W 074°01'2 3.0
2017-Apr-18 12:00N 40°42' W 074°00'611.7
2017-Apr-18 11:31N 40°37' W 074°03'1222.3
2017-Apr-18 11:00N 40°25' W 074°02'2 1.8
2017-Apr-18 09:58N 40°25' W 073°60'0 0.0
2017-Apr-18 00:32N 40°25' W 073°60'115.9
2017-Apr-18 00:27N 40°25' W 074°01'1022.0
2017-Apr-18 00:00N 40°35' W 074°03'1020.0
2017-Apr-17 23:31N 40°45' W 073°58'917.0
2017-Apr-17 23:01N 40°37' W 074°03'1218.5
2017-Apr-17 22:21N 40°25' W 074°00'513.0
2017-Apr-17 21:57N 40°30' W 074°02'1227.7
2017-Apr-17 21:30N 40°42' W 074°00'3 5.9
2017-Apr-17 21:00N 40°45' W 073°58'815.3
2017-Apr-17 20:31N 40°38' W 074°03'1319.7
2017-Apr-17 19:52N 40°25' W 074°02'4 9.9
2017-Apr-17 19:29N 40°29' W 074°01'1327.8
2017-Apr-17 19:00N 40°42' W 074°00'3 5.9
2017-Apr-17 18:30N 40°45' W 073°58'0 0.1
2017-Apr-17 18:00N 40°45' W 073°58'0 0.0
2017-Apr-17 17:30N 40°45' W 073°58'0 0.0
2017-Apr-17 17:00N 40°45' W 073°58'0 0.0
2017-Apr-17 16:30N 40°45' W 073°58'0 0.0
2017-Apr-17 16:00N 40°45' W 073°58'0 0.0
2017-Apr-17 15:30N 40°45' W 073°58'0 0.0
2017-Apr-17 15:00N 40°45' W 073°58'0 0.0
2017-Apr-17 14:30N 40°45' W 073°58'5 5.0
2017-Apr-17 13:31N 40°40' W 074°02'1529.2
2017-Apr-17 12:59N 40°25' W 074°02'1021.3
2017-Apr-17 12:30N 40°36' W 074°03'1019.3
2017-Apr-17 12:01N 40°45' W 073°58'816.4
2017-Apr-17 11:30N 40°37' W 074°03'1223.6
2017-Apr-17 11:00N 40°25' W 074°02'2 0.2
2017-Apr-17 01:30N 40°25' W 073°60'1326.7
2017-Apr-17 01:01N 40°37' W 074°03'815.6
2017-Apr-17 00:30N 40°45' W 073°58'1019.1
2017-Apr-17 00:00N 40°36' W 074°02'1115.6
2017-Apr-16 23:17N 40°25' W 073°60'0 0.0
2017-Apr-16 23:00N 40°25' W 073°60'3 6.8
2017-Apr-16 22:30N 40°28' W 074°01'1327.0
2017-Apr-16 22:01N 40°41' W 074°01'2 4.4
2017-Apr-16 21:31N 40°42' W 073°59'612.8
2017-Apr-16 21:00N 40°36' W 074°02'1215.0
2017-Apr-16 20:13N 40°25' W 074°00'625.7
2017-Apr-16 20:00N 40°30' W 074°02'1224.2
2017-Apr-16 19:30N 40°42' W 074°00'3 6.0
2017-Apr-16 19:01N 40°45' W 073°58'0 0.0
2017-Apr-16 18:30N 40°45' W 073°58'0 0.0
2017-Apr-16 18:01N 40°45' W 073°58'0 0.0
2017-Apr-16 17:31N 40°45' W 073°58'1 2.1
2017-Apr-16 17:00N 40°44' W 073°58'815.6
2017-Apr-16 16:30N 40°37' W 074°02'6 6.2
2017-Apr-16 15:32N 40°31' W 074°02'432.2
2017-Apr-16 15:25N 40°34' W 074°02'922.1
2017-Apr-16 15:01N 40°43' W 073°58'8 7.7
2017-Apr-16 14:00N 40°36' W 074°02'1117.2
2017-Apr-16 13:20N 40°25' W 073°60'0 0.0
2017-Apr-16 01:33N 40°25' W 073°60'0 0.0
2017-Apr-16 01:30N 40°25' W 073°60'1224.2
2017-Apr-16 01:00N 40°36' W 074°03'917.7
2017-Apr-16 00:31N 40°45' W 073°58'816.1
2017-Apr-16 00:01N 40°37' W 074°03'1324.0
2017-Apr-15 23:28N 40°25' W 073°60'0 0.0
2017-Apr-15 23:01N 40°25' W 073°60'812.4
2017-Apr-15 22:22N 40°32' W 074°02'925.4
2017-Apr-15 22:01N 40°41' W 074°01'2 3.2
2017-Apr-15 21:31N 40°42' W 073°59'612.6
2017-Apr-15 21:01N 40°37' W 074°03'1224.3
2017-Apr-15 20:30N 40°25' W 073°60'816.6
2017-Apr-15 20:00N 40°33' W 074°02'1019.5
2017-Apr-15 19:30N 40°42' W 074°00'3 5.8
2017-Apr-15 19:00N 40°45' W 073°58'0 0.0
2017-Apr-15 18:30N 40°45' W 073°58'0 0.0
2017-Apr-15 18:00N 40°45' W 073°58'0 0.0
2017-Apr-15 17:30N 40°45' W 073°58'2 3.7
2017-Apr-15 17:01N 40°43' W 073°58'  

Dump ship's entire track history